sensor_id;sensor_type;location;lat;lon;timestamp;P1;durP1;ratioP1;P2;durP2;ratioP2
65477;SDS011;53678;39.642;22.430;2023-09-18T00:01:40;10.25;;;4.88;;
65477;SDS011;53678;39.642;22.430;2023-09-18T00:04:06;8.25;;;4.20;;
65477;SDS011;53678;39.642;22.430;2023-09-18T00:06:32;12.32;;;4.88;;
65477;SDS011;53678;39.642;22.430;2023-09-18T00:08:58;10.48;;;5.30;;
65477;SDS011;53678;39.642;22.430;2023-09-18T00:11:24;18.85;;;5.90;;
65477;SDS011;53678;39.642;22.430;2023-09-18T00:13:50;11.43;;;4.95;;
65477;SDS011;53678;39.642;22.430;2023-09-18T00:16:15;16.55;;;5.20;;
65477;SDS011;53678;39.642;22.430;2023-09-18T00:18:42;9.38;;;4.32;;
65477;SDS011;53678;39.642;22.430;2023-09-18T00:21:10;11.90;;;4.75;;
65477;SDS011;53678;39.642;22.430;2023-09-18T00:23:38;9.98;;;4.38;;
65477;SDS011;53678;39.642;22.430;2023-09-18T00:26:04;10.80;;;4.80;;
65477;SDS011;53678;39.642;22.430;2023-09-18T00:28:30;9.63;;;4.70;;
65477;SDS011;53678;39.642;22.430;2023-09-18T00:30:56;15.07;;;4.80;;
65477;SDS011;53678;39.642;22.430;2023-09-18T00:33:21;13.20;;;4.70;;
65477;SDS011;53678;39.642;22.430;2023-09-18T00:35:47;12.00;;;4.47;;
65477;SDS011;53678;39.642;22.430;2023-09-18T00:38:15;10.48;;;4.30;;
65477;SDS011;53678;39.642;22.430;2023-09-18T00:40:40;10.02;;;4.65;;
65477;SDS011;53678;39.642;22.430;2023-09-18T00:43:07;12.00;;;4.78;;
65477;SDS011;53678;39.642;22.430;2023-09-18T00:45:33;11.85;;;4.88;;
65477;SDS011;53678;39.642;22.430;2023-09-18T00:48:01;17.10;;;5.18;;
65477;SDS011;53678;39.642;22.430;2023-09-18T00:50:27;10.65;;;4.82;;
65477;SDS011;53678;39.642;22.430;2023-09-18T00:52:53;11.68;;;4.10;;
65477;SDS011;53678;39.642;22.430;2023-09-18T00:55:19;12.52;;;4.75;;
65477;SDS011;53678;39.642;22.430;2023-09-18T00:57:45;11.27;;;4.45;;
65477;SDS011;53678;39.642;22.430;2023-09-18T01:00:11;8.60;;;4.28;;
65477;SDS011;53678;39.642;22.430;2023-09-18T01:02:42;14.50;;;5.43;;
65477;SDS011;53678;39.642;22.430;2023-09-18T01:05:08;9.02;;;4.78;;
65477;SDS011;53678;39.642;22.430;2023-09-18T01:07:34;16.98;;;5.10;;
65477;SDS011;53678;39.642;22.430;2023-09-18T01:10:00;14.75;;;4.90;;
65477;SDS011;53678;39.642;22.430;2023-09-18T01:12:49;13.80;;;4.90;;
65477;SDS011;53678;39.642;22.430;2023-09-18T01:15:22;12.07;;;5.28;;
65477;SDS011;53678;39.642;22.430;2023-09-18T01:17:52;7.57;;;4.70;;
65477;SDS011;53678;39.642;22.430;2023-09-18T01:20:18;11.07;;;4.47;;
65477;SDS011;53678;39.642;22.430;2023-09-18T01:22:44;9.63;;;4.63;;
65477;SDS011;53678;39.642;22.430;2023-09-18T01:25:09;13.25;;;4.82;;
65477;SDS011;53678;39.642;22.430;2023-09-18T01:27:35;9.88;;;4.05;;
65477;SDS011;53678;39.642;22.430;2023-09-18T01:30:01;11.45;;;4.50;;
65477;SDS011;53678;39.642;22.430;2023-09-18T01:32:29;9.38;;;4.78;;
65477;SDS011;53678;39.642;22.430;2023-09-18T01:34:57;9.20;;;4.63;;
65477;SDS011;53678;39.642;22.430;2023-09-18T01:37:26;8.98;;;4.00;;
65477;SDS011;53678;39.642;22.430;2023-09-18T01:39:54;13.10;;;4.47;;
65477;SDS011;53678;39.642;22.430;2023-09-18T01:42:24;10.95;;;4.38;;
65477;SDS011;53678;39.642;22.430;2023-09-18T01:44:52;15.13;;;5.35;;
65477;SDS011;53678;39.642;22.430;2023-09-18T01:47:20;9.82;;;4.50;;
65477;SDS011;53678;39.642;22.430;2023-09-18T01:49:48;15.02;;;5.28;;
65477;SDS011;53678;39.642;22.430;2023-09-18T01:52:14;13.88;;;4.80;;
65477;SDS011;53678;39.642;22.430;2023-09-18T01:54:40;12.82;;;4.75;;
65477;SDS011;53678;39.642;22.430;2023-09-18T01:57:06;9.68;;;4.60;;
65477;SDS011;53678;39.642;22.430;2023-09-18T01:59:35;10.85;;;5.13;;
65477;SDS011;53678;39.642;22.430;2023-09-18T02:02:01;9.32;;;4.10;;
65477;SDS011;53678;39.642;22.430;2023-09-18T02:04:32;6.45;;;4.28;;
65477;SDS011;53678;39.642;22.430;2023-09-18T02:06:58;7.00;;;4.43;;
65477;SDS011;53678;39.642;22.430;2023-09-18T02:09:24;14.95;;;4.60;;
65477;SDS011;53678;39.642;22.430;2023-09-18T02:11:49;13.10;;;4.70;;
65477;SDS011;53678;39.642;22.430;2023-09-18T02:14:15;8.82;;;4.72;;
65477;SDS011;53678;39.642;22.430;2023-09-18T02:16:42;8.40;;;4.53;;
65477;SDS011;53678;39.642;22.430;2023-09-18T02:19:14;10.07;;;3.85;;
65477;SDS011;53678;39.642;22.430;2023-09-18T02:21:42;15.15;;;4.88;;
65477;SDS011;53678;39.642;22.430;2023-09-18T02:24:08;10.48;;;4.63;;
65477;SDS011;53678;39.642;22.430;2023-09-18T02:26:35;10.38;;;4.30;;
65477;SDS011;53678;39.642;22.430;2023-09-18T02:29:03;11.68;;;4.50;;
65477;SDS011;53678;39.642;22.430;2023-09-18T02:31:30;16.50;;;5.78;;
65477;SDS011;53678;39.642;22.430;2023-09-18T02:33:56;9.80;;;4.80;;
65477;SDS011;53678;39.642;22.430;2023-09-18T02:36:22;13.65;;;5.00;;
65477;SDS011;53678;39.642;22.430;2023-09-18T02:38:48;10.73;;;4.65;;
65477;SDS011;53678;39.642;22.430;2023-09-18T02:41:14;16.60;;;5.90;;
65477;SDS011;53678;39.642;22.430;2023-09-18T02:43:39;17.85;;;5.85;;
65477;SDS011;53678;39.642;22.430;2023-09-18T02:46:05;14.80;;;5.68;;
65477;SDS011;53678;39.642;22.430;2023-09-18T02:48:32;10.30;;;6.50;;
65477;SDS011;53678;39.642;22.430;2023-09-18T02:51:01;15.30;;;7.50;;
65477;SDS011;53678;39.642;22.430;2023-09-18T02:53:28;18.83;;;8.07;;
65477;SDS011;53678;39.642;22.430;2023-09-18T02:55:56;14.15;;;7.10;;
65477;SDS011;53678;39.642;22.430;2023-09-18T02:58:23;36.40;;;10.82;;
65477;SDS011;53678;39.642;22.430;2023-09-18T03:00:54;20.25;;;8.00;;
65477;SDS011;53678;39.642;22.430;2023-09-18T03:03:26;22.05;;;7.95;;
65477;SDS011;53678;39.642;22.430;2023-09-18T03:05:52;16.52;;;8.00;;
65477;SDS011;53678;39.642;22.430;2023-09-18T03:08:18;22.80;;;8.77;;
65477;SDS011;53678;39.642;22.430;2023-09-18T03:10:44;11.93;;;8.05;;
65477;SDS011;53678;39.642;22.430;2023-09-18T03:13:11;19.73;;;8.73;;
65477;SDS011;53678;39.642;22.430;2023-09-18T03:15:38;22.40;;;8.55;;
65477;SDS011;53678;39.642;22.430;2023-09-18T03:18:05;19.55;;;8.57;;
65477;SDS011;53678;39.642;22.430;2023-09-18T03:20:33;27.45;;;9.30;;
65477;SDS011;53678;39.642;22.430;2023-09-18T03:23:00;19.10;;;7.35;;
65477;SDS011;53678;39.642;22.430;2023-09-18T03:25:28;21.13;;;8.02;;
65477;SDS011;53678;39.642;22.430;2023-09-18T03:27:55;23.95;;;7.63;;
65477;SDS011;53678;39.642;22.430;2023-09-18T03:30:27;25.08;;;9.02;;
65477;SDS011;53678;39.642;22.430;2023-09-18T03:32:53;29.42;;;8.32;;
65477;SDS011;53678;39.642;22.430;2023-09-18T03:35:19;13.65;;;6.90;;
65477;SDS011;53678;39.642;22.430;2023-09-18T03:37:47;17.70;;;6.32;;
65477;SDS011;53678;39.642;22.430;2023-09-18T03:40:16;16.23;;;6.82;;
65477;SDS011;53678;39.642;22.430;2023-09-18T03:42:43;13.18;;;6.65;;
65477;SDS011;53678;39.642;22.430;2023-09-18T03:45:09;11.20;;;6.57;;
65477;SDS011;53678;39.642;22.430;2023-09-18T03:47:36;15.90;;;5.82;;
65477;SDS011;53678;39.642;22.430;2023-09-18T03:50:05;14.85;;;5.78;;
65477;SDS011;53678;39.642;22.430;2023-09-18T03:52:35;13.55;;;5.88;;
65477;SDS011;53678;39.642;22.430;2023-09-18T03:55:02;11.38;;;5.13;;
65477;SDS011;53678;39.642;22.430;2023-09-18T03:57:28;11.10;;;5.20;;
65477;SDS011;53678;39.642;22.430;2023-09-18T03:59:54;19.60;;;6.78;;
65477;SDS011;53678;39.642;22.430;2023-09-18T04:02:21;10.13;;;4.95;;
65477;SDS011;53678;39.642;22.430;2023-09-18T04:04:50;15.57;;;5.80;;
65477;SDS011;53678;39.642;22.430;2023-09-18T04:07:16;11.77;;;4.78;;
65477;SDS011;53678;39.642;22.430;2023-09-18T04:09:42;11.02;;;5.38;;
65477;SDS011;53678;39.642;22.430;2023-09-18T04:12:08;11.20;;;4.55;;
65477;SDS011;53678;39.642;22.430;2023-09-18T04:14:35;13.82;;;4.78;;
65477;SDS011;53678;39.642;22.430;2023-09-18T04:17:01;19.63;;;6.45;;
65477;SDS011;53678;39.642;22.430;2023-09-18T04:19:27;14.00;;;4.78;;
65477;SDS011;53678;39.642;22.430;2023-09-18T04:21:53;11.13;;;4.35;;
65477;SDS011;53678;39.642;22.430;2023-09-18T04:24:19;11.93;;;4.78;;
65477;SDS011;53678;39.642;22.430;2023-09-18T04:26:46;11.68;;;5.15;;
65477;SDS011;53678;39.642;22.430;2023-09-18T04:29:13;13.98;;;5.10;;
65477;SDS011;53678;39.642;22.430;2023-09-18T04:31:39;14.40;;;4.97;;
65477;SDS011;53678;39.642;22.430;2023-09-18T04:34:04;12.23;;;5.13;;
65477;SDS011;53678;39.642;22.430;2023-09-18T04:36:30;17.35;;;5.57;;
65477;SDS011;53678;39.642;22.430;2023-09-18T04:38:57;17.23;;;5.45;;
65477;SDS011;53678;39.642;22.430;2023-09-18T04:41:23;18.48;;;5.82;;
65477;SDS011;53678;39.642;22.430;2023-09-18T04:43:51;16.73;;;5.47;;
65477;SDS011;53678;39.642;22.430;2023-09-18T04:46:16;16.58;;;4.82;;
65477;SDS011;53678;39.642;22.430;2023-09-18T04:48:44;21.95;;;5.35;;
65477;SDS011;53678;39.642;22.430;2023-09-18T04:51:10;19.65;;;5.13;;
65477;SDS011;53678;39.642;22.430;2023-09-18T04:53:37;13.18;;;4.60;;
65477;SDS011;53678;39.642;22.430;2023-09-18T04:56:03;17.70;;;5.20;;
65477;SDS011;53678;39.642;22.430;2023-09-18T04:58:29;11.50;;;4.95;;
65477;SDS011;53678;39.642;22.430;2023-09-18T05:00:57;20.05;;;4.88;;
65477;SDS011;53678;39.642;22.430;2023-09-18T05:03:24;13.52;;;3.85;;
65477;SDS011;53678;39.642;22.430;2023-09-18T05:05:52;12.27;;;3.70;;
65477;SDS011;53678;39.642;22.430;2023-09-18T05:08:18;16.67;;;5.03;;
65477;SDS011;53678;39.642;22.430;2023-09-18T05:10:44;18.70;;;5.47;;
65477;SDS011;53678;39.642;22.430;2023-09-18T05:13:11;12.02;;;4.53;;
65477;SDS011;53678;39.642;22.430;2023-09-18T05:15:37;13.73;;;4.55;;
65477;SDS011;53678;39.642;22.430;2023-09-18T05:18:04;9.75;;;4.20;;
65477;SDS011;53678;39.642;22.430;2023-09-18T05:20:30;12.68;;;3.67;;
65477;SDS011;53678;39.642;22.430;2023-09-18T05:22:58;11.75;;;3.95;;
65477;SDS011;53678;39.642;22.430;2023-09-18T05:25:26;14.23;;;5.47;;
65477;SDS011;53678;39.642;22.430;2023-09-18T05:27:59;11.45;;;3.80;;
65477;SDS011;53678;39.642;22.430;2023-09-18T05:33:00;7.88;;;3.55;;
65477;SDS011;53678;39.642;22.430;2023-09-18T05:35:39;11.20;;;3.97;;
65477;SDS011;53678;39.642;22.430;2023-09-18T05:38:06;11.80;;;3.67;;
65477;SDS011;53678;39.642;22.430;2023-09-18T05:40:32;11.70;;;3.30;;
65477;SDS011;53678;39.642;22.430;2023-09-18T05:42:58;9.98;;;3.42;;
65477;SDS011;53678;39.642;22.430;2023-09-18T05:45:24;12.13;;;3.50;;
65477;SDS011;53678;39.642;22.430;2023-09-18T05:47:51;14.18;;;3.85;;
65477;SDS011;53678;39.642;22.430;2023-09-18T05:50:18;13.27;;;4.32;;
65477;SDS011;53678;39.642;22.430;2023-09-18T05:52:48;11.55;;;3.53;;
65477;SDS011;53678;39.642;22.430;2023-09-18T05:55:17;16.90;;;4.30;;
65477;SDS011;53678;39.642;22.430;2023-09-18T05:57:44;10.07;;;3.92;;
65477;SDS011;53678;39.642;22.430;2023-09-18T06:00:10;8.80;;;4.45;;
65477;SDS011;53678;39.642;22.430;2023-09-18T06:02:41;15.38;;;4.28;;
65477;SDS011;53678;39.642;22.430;2023-09-18T06:05:07;9.52;;;3.63;;
65477;SDS011;53678;39.642;22.430;2023-09-18T06:07:36;10.82;;;4.93;;
65477;SDS011;53678;39.642;22.430;2023-09-18T06:10:02;15.77;;;4.95;;
65477;SDS011;53678;39.642;22.430;2023-09-18T06:12:28;12.50;;;4.85;;
65477;SDS011;53678;39.642;22.430;2023-09-18T06:14:55;14.00;;;5.40;;
65477;SDS011;53678;39.642;22.430;2023-09-18T06:17:21;16.80;;;5.72;;
65477;SDS011;53678;39.642;22.430;2023-09-18T06:19:47;16.00;;;4.72;;
65477;SDS011;53678;39.642;22.430;2023-09-18T06:22:13;16.27;;;4.68;;
65477;SDS011;53678;39.642;22.430;2023-09-18T06:24:39;14.40;;;4.60;;
65477;SDS011;53678;39.642;22.430;2023-09-18T06:27:05;20.88;;;6.53;;
65477;SDS011;53678;39.642;22.430;2023-09-18T06:29:31;11.50;;;5.40;;
65477;SDS011;53678;39.642;22.430;2023-09-18T06:31:58;11.13;;;4.80;;
65477;SDS011;53678;39.642;22.430;2023-09-18T06:34:24;12.52;;;4.93;;
65477;SDS011;53678;39.642;22.430;2023-09-18T06:36:50;13.57;;;4.80;;
65477;SDS011;53678;39.642;22.430;2023-09-18T06:39:16;10.13;;;4.45;;
65477;SDS011;53678;39.642;22.430;2023-09-18T06:41:41;7.90;;;3.58;;
65477;SDS011;53678;39.642;22.430;2023-09-18T06:44:11;9.63;;;3.47;;
65477;SDS011;53678;39.642;22.430;2023-09-18T06:46:36;13.15;;;3.30;;
65477;SDS011;53678;39.642;22.430;2023-09-18T06:49:02;16.02;;;4.22;;
65477;SDS011;53678;39.642;22.430;2023-09-18T06:51:28;14.63;;;4.60;;
65477;SDS011;53678;39.642;22.430;2023-09-18T06:53:54;14.23;;;5.07;;
65477;SDS011;53678;39.642;22.430;2023-09-18T06:56:23;15.25;;;4.88;;
65477;SDS011;53678;39.642;22.430;2023-09-18T06:58:50;13.40;;;4.93;;
65477;SDS011;53678;39.642;22.430;2023-09-18T07:01:18;13.52;;;4.72;;
65477;SDS011;53678;39.642;22.430;2023-09-18T07:03:45;10.45;;;3.97;;
65477;SDS011;53678;39.642;22.430;2023-09-18T07:06:13;21.02;;;5.35;;
65477;SDS011;53678;39.642;22.430;2023-09-18T07:08:42;10.90;;;4.25;;
65477;SDS011;53678;39.642;22.430;2023-09-18T07:11:08;13.60;;;4.78;;
65477;SDS011;53678;39.642;22.430;2023-09-18T07:13:34;11.48;;;3.88;;
65477;SDS011;53678;39.642;22.430;2023-09-18T07:16:00;10.50;;;3.72;;
65477;SDS011;53678;39.642;22.430;2023-09-18T07:18:26;10.10;;;3.53;;
65477;SDS011;53678;39.642;22.430;2023-09-18T07:20:51;8.15;;;2.95;;
65477;SDS011;53678;39.642;22.430;2023-09-18T07:23:17;11.50;;;3.30;;
65477;SDS011;53678;39.642;22.430;2023-09-18T07:25:43;16.38;;;7.80;;
65477;SDS011;53678;39.642;22.430;2023-09-18T07:28:09;10.07;;;3.60;;
65477;SDS011;53678;39.642;22.430;2023-09-18T07:30:41;10.30;;;3.15;;
65477;SDS011;53678;39.642;22.430;2023-09-18T07:33:07;8.40;;;3.22;;
65477;SDS011;53678;39.642;22.430;2023-09-18T07:35:33;10.07;;;3.50;;
65477;SDS011;53678;39.642;22.430;2023-09-18T07:37:58;11.60;;;3.45;;
65477;SDS011;53678;39.642;22.430;2023-09-18T07:40:24;7.65;;;2.97;;
65477;SDS011;53678;39.642;22.430;2023-09-18T07:42:50;11.82;;;4.13;;
65477;SDS011;53678;39.642;22.430;2023-09-18T07:45:16;6.75;;;2.90;;
65477;SDS011;53678;39.642;22.430;2023-09-18T07:47:42;8.73;;;3.40;;
65477;SDS011;53678;39.642;22.430;2023-09-18T07:50:08;7.88;;;3.75;;
65477;SDS011;53678;39.642;22.430;2023-09-18T07:52:35;8.35;;;3.00;;
65477;SDS011;53678;39.642;22.430;2023-09-18T07:55:02;6.38;;;3.42;;
65477;SDS011;53678;39.642;22.430;2023-09-18T07:57:28;8.63;;;3.97;;
65477;SDS011;53678;39.642;22.430;2023-09-18T07:59:55;6.28;;;3.42;;
65477;SDS011;53678;39.642;22.430;2023-09-18T08:02:21;5.57;;;3.15;;
65477;SDS011;53678;39.642;22.430;2023-09-18T08:04:47;6.60;;;3.40;;
65477;SDS011;53678;39.642;22.430;2023-09-18T08:07:13;8.25;;;3.17;;
65477;SDS011;53678;39.642;22.430;2023-09-18T08:09:39;8.75;;;4.00;;
65477;SDS011;53678;39.642;22.430;2023-09-18T08:12:05;6.55;;;3.00;;
65477;SDS011;53678;39.642;22.430;2023-09-18T08:14:34;12.98;;;4.05;;
65477;SDS011;53678;39.642;22.430;2023-09-18T08:17:03;10.00;;;3.00;;
65477;SDS011;53678;39.642;22.430;2023-09-18T08:19:30;9.45;;;2.95;;
65477;SDS011;53678;39.642;22.430;2023-09-18T08:22:00;7.38;;;3.00;;
65477;SDS011;53678;39.642;22.430;2023-09-18T08:24:26;9.15;;;2.75;;
65477;SDS011;53678;39.642;22.430;2023-09-18T08:26:52;9.82;;;3.25;;
65477;SDS011;53678;39.642;22.430;2023-09-18T08:29:19;8.80;;;3.10;;
65477;SDS011;53678;39.642;22.430;2023-09-18T08:31:45;11.18;;;3.53;;
65477;SDS011;53678;39.642;22.430;2023-09-18T08:34:10;9.60;;;3.15;;
65477;SDS011;53678;39.642;22.430;2023-09-18T08:36:36;6.45;;;3.20;;
65477;SDS011;53678;39.642;22.430;2023-09-18T08:39:03;14.07;;;3.92;;
65477;SDS011;53678;39.642;22.430;2023-09-18T08:41:31;7.40;;;3.20;;
65477;SDS011;53678;39.642;22.430;2023-09-18T08:44:01;6.25;;;3.20;;
65477;SDS011;53678;39.642;22.430;2023-09-18T08:46:29;9.02;;;3.45;;
65477;SDS011;53678;39.642;22.430;2023-09-18T08:48:55;8.90;;;3.60;;
65477;SDS011;53678;39.642;22.430;2023-09-18T08:51:22;9.00;;;3.63;;
65477;SDS011;53678;39.642;22.430;2023-09-18T08:53:48;10.88;;;3.45;;
65477;SDS011;53678;39.642;22.430;2023-09-18T08:56:15;12.23;;;3.28;;
65477;SDS011;53678;39.642;22.430;2023-09-18T08:58:42;6.65;;;3.33;;
65477;SDS011;53678;39.642;22.430;2023-09-18T09:01:09;8.80;;;3.60;;
65477;SDS011;53678;39.642;22.430;2023-09-18T09:03:38;7.03;;;3.20;;
65477;SDS011;53678;39.642;22.430;2023-09-18T09:06:08;9.35;;;3.58;;
65477;SDS011;53678;39.642;22.430;2023-09-18T09:08:35;12.27;;;3.80;;
65477;SDS011;53678;39.642;22.430;2023-09-18T09:11:02;7.95;;;2.95;;
65477;SDS011;53678;39.642;22.430;2023-09-18T09:13:28;8.55;;;3.22;;
65477;SDS011;53678;39.642;22.430;2023-09-18T09:15:55;7.05;;;3.38;;
65477;SDS011;53678;39.642;22.430;2023-09-18T09:18:22;8.68;;;3.58;;
65477;SDS011;53678;39.642;22.430;2023-09-18T09:20:53;8.43;;;3.40;;
65477;SDS011;53678;39.642;22.430;2023-09-18T09:23:23;11.15;;;3.85;;
65477;SDS011;53678;39.642;22.430;2023-09-18T09:25:50;8.50;;;3.50;;
65477;SDS011;53678;39.642;22.430;2023-09-18T09:28:16;7.68;;;3.30;;
65477;SDS011;53678;39.642;22.430;2023-09-18T09:30:59;9.43;;;3.50;;
65477;SDS011;53678;39.642;22.430;2023-09-18T09:33:29;11.23;;;3.30;;
65477;SDS011;53678;39.642;22.430;2023-09-18T09:35:56;6.78;;;4.13;;
65477;SDS011;53678;39.642;22.430;2023-09-18T09:38:29;6.50;;;3.35;;
65477;SDS011;53678;39.642;22.430;2023-09-18T09:40:59;10.95;;;4.15;;
65477;SDS011;53678;39.642;22.430;2023-09-18T09:43:26;7.22;;;3.60;;
65477;SDS011;53678;39.642;22.430;2023-09-18T09:45:58;8.25;;;3.80;;
65477;SDS011;53678;39.642;22.430;2023-09-18T09:48:24;9.60;;;3.53;;
65477;SDS011;53678;39.642;22.430;2023-09-18T09:50:59;7.60;;;3.88;;
65477;SDS011;53678;39.642;22.430;2023-09-18T09:53:45;9.13;;;3.13;;
65477;SDS011;53678;39.642;22.430;2023-09-18T09:56:16;8.55;;;3.20;;
65477;SDS011;53678;39.642;22.430;2023-09-18T09:59:00;8.63;;;3.47;;
65477;SDS011;53678;39.642;22.430;2023-09-18T10:01:28;8.10;;;3.20;;
65477;SDS011;53678;39.642;22.430;2023-09-18T10:03:56;9.23;;;3.53;;
65477;SDS011;53678;39.642;22.430;2023-09-18T10:06:22;11.52;;;3.50;;
65477;SDS011;53678;39.642;22.430;2023-09-18T10:08:48;11.80;;;4.03;;
65477;SDS011;53678;39.642;22.430;2023-09-18T10:11:14;10.52;;;4.00;;
65477;SDS011;53678;39.642;22.430;2023-09-18T10:13:51;5.03;;;3.20;;
65477;SDS011;53678;39.642;22.430;2023-09-18T10:16:22;7.28;;;3.70;;
65477;SDS011;53678;39.642;22.430;2023-09-18T10:21:26;7.80;;;3.67;;
65477;SDS011;53678;39.642;22.430;2023-09-18T10:26:55;6.97;;;3.60;;
65477;SDS011;53678;39.642;22.430;2023-09-18T10:29:26;6.53;;;3.92;;
65477;SDS011;53678;39.642;22.430;2023-09-18T10:31:53;10.35;;;3.80;;
65477;SDS011;53678;39.642;22.430;2023-09-18T10:34:20;8.38;;;3.30;;
65477;SDS011;53678;39.642;22.430;2023-09-18T10:36:49;10.15;;;4.18;;
65477;SDS011;53678;39.642;22.430;2023-09-18T10:39:23;6.38;;;3.47;;
65477;SDS011;53678;39.642;22.430;2023-09-18T10:41:53;8.85;;;3.42;;
65477;SDS011;53678;39.642;22.430;2023-09-18T10:44:20;12.13;;;3.85;;
65477;SDS011;53678;39.642;22.430;2023-09-18T10:46:48;9.18;;;3.70;;
65477;SDS011;53678;39.642;22.430;2023-09-18T10:49:18;7.18;;;3.85;;
65477;SDS011;53678;39.642;22.430;2023-09-18T10:51:48;10.57;;;3.90;;
65477;SDS011;53678;39.642;22.430;2023-09-18T10:54:20;5.97;;;3.70;;
65477;SDS011;53678;39.642;22.430;2023-09-18T10:56:47;11.45;;;3.70;;
65477;SDS011;53678;39.642;22.430;2023-09-18T10:59:13;7.00;;;3.90;;
65477;SDS011;53678;39.642;22.430;2023-09-18T11:01:41;11.15;;;3.70;;
65477;SDS011;53678;39.642;22.430;2023-09-18T11:04:08;8.65;;;3.50;;
65477;SDS011;53678;39.642;22.430;2023-09-18T11:09:23;14.43;;;3.92;;
65477;SDS011;53678;39.642;22.430;2023-09-18T11:11:54;7.85;;;3.40;;
65477;SDS011;53678;39.642;22.430;2023-09-18T11:14:41;9.93;;;4.30;;
65477;SDS011;53678;39.642;22.430;2023-09-18T11:17:33;9.02;;;3.60;;
65477;SDS011;53678;39.642;22.430;2023-09-18T11:20:17;9.18;;;3.75;;
65477;SDS011;53678;39.642;22.430;2023-09-18T11:22:49;14.02;;;3.95;;
65477;SDS011;53678;39.642;22.430;2023-09-18T11:25:42;6.38;;;3.33;;
65477;SDS011;53678;39.642;22.430;2023-09-18T11:28:13;11.38;;;4.75;;
65477;SDS011;53678;39.642;22.430;2023-09-18T11:30:49;8.35;;;4.10;;
65477;SDS011;53678;39.642;22.430;2023-09-18T11:33:16;9.40;;;4.78;;
65477;SDS011;53678;39.642;22.430;2023-09-18T11:35:56;7.65;;;3.65;;
65477;SDS011;53678;39.642;22.430;2023-09-18T11:38:21;5.75;;;3.60;;
65477;SDS011;53678;39.642;22.430;2023-09-18T11:40:51;8.88;;;3.50;;
65477;SDS011;53678;39.642;22.430;2023-09-18T11:43:26;7.38;;;3.67;;
65477;SDS011;53678;39.642;22.430;2023-09-18T11:45:57;10.18;;;3.92;;
65477;SDS011;53678;39.642;22.430;2023-09-18T11:48:25;5.75;;;3.55;;
65477;SDS011;53678;39.642;22.430;2023-09-18T11:50:58;6.65;;;3.40;;
65477;SDS011;53678;39.642;22.430;2023-09-18T11:53:26;6.30;;;3.85;;
65477;SDS011;53678;39.642;22.430;2023-09-18T11:55:53;8.18;;;3.90;;
65477;SDS011;53678;39.642;22.430;2023-09-18T11:58:19;7.63;;;4.25;;
65477;SDS011;53678;39.642;22.430;2023-09-18T12:00:52;9.52;;;4.13;;
65477;SDS011;53678;39.642;22.430;2023-09-18T12:03:20;9.13;;;5.68;;
65477;SDS011;53678;39.642;22.430;2023-09-18T12:06:00;9.32;;;4.50;;
65477;SDS011;53678;39.642;22.430;2023-09-18T12:08:30;8.05;;;4.38;;
65477;SDS011;53678;39.642;22.430;2023-09-18T12:10:57;7.63;;;3.88;;
65477;SDS011;53678;39.642;22.430;2023-09-18T12:13:26;8.30;;;4.10;;
65477;SDS011;53678;39.642;22.430;2023-09-18T12:16:03;6.03;;;3.67;;
65477;SDS011;53678;39.642;22.430;2023-09-18T12:18:32;9.40;;;4.65;;
65477;SDS011;53678;39.642;22.430;2023-09-18T12:21:05;8.75;;;4.10;;
65477;SDS011;53678;39.642;22.430;2023-09-18T12:23:38;12.10;;;4.20;;
65477;SDS011;53678;39.642;22.430;2023-09-18T12:26:04;8.80;;;4.78;;
65477;SDS011;53678;39.642;22.430;2023-09-18T12:28:35;6.20;;;3.45;;
65477;SDS011;53678;39.642;22.430;2023-09-18T12:31:01;7.25;;;4.60;;
65477;SDS011;53678;39.642;22.430;2023-09-18T12:33:33;9.65;;;4.53;;
65477;SDS011;53678;39.642;22.430;2023-09-18T12:36:03;8.85;;;3.88;;
65477;SDS011;53678;39.642;22.430;2023-09-18T12:38:30;8.20;;;4.43;;
65477;SDS011;53678;39.642;22.430;2023-09-18T12:40:56;8.23;;;3.97;;
65477;SDS011;53678;39.642;22.430;2023-09-18T12:43:38;8.35;;;4.32;;
65477;SDS011;53678;39.642;22.430;2023-09-18T12:46:05;6.32;;;4.13;;
65477;SDS011;53678;39.642;22.430;2023-09-18T12:48:32;9.88;;;4.05;;
65477;SDS011;53678;39.642;22.430;2023-09-18T12:51:06;7.05;;;4.53;;
65477;SDS011;53678;39.642;22.430;2023-09-18T12:53:32;8.20;;;3.85;;
65477;SDS011;53678;39.642;22.430;2023-09-18T12:56:05;8.98;;;3.90;;
65477;SDS011;53678;39.642;22.430;2023-09-18T12:58:31;10.20;;;4.53;;
65477;SDS011;53678;39.642;22.430;2023-09-18T13:00:57;7.90;;;4.40;;
65477;SDS011;53678;39.642;22.430;2023-09-18T13:03:23;12.25;;;4.18;;
65477;SDS011;53678;39.642;22.430;2023-09-18T13:05:48;8.13;;;3.97;;
65477;SDS011;53678;39.642;22.430;2023-09-18T13:08:21;9.73;;;4.13;;
65477;SDS011;53678;39.642;22.430;2023-09-18T13:10:48;8.80;;;3.80;;
65477;SDS011;53678;39.642;22.430;2023-09-18T13:13:23;8.65;;;4.25;;
65477;SDS011;53678;39.642;22.430;2023-09-18T13:18:16;14.27;;;4.00;;
65477;SDS011;53678;39.642;22.430;2023-09-18T13:20:44;10.30;;;4.28;;
65477;SDS011;53678;39.642;22.430;2023-09-18T13:23:10;10.35;;;3.88;;
65477;SDS011;53678;39.642;22.430;2023-09-18T13:25:37;8.13;;;4.35;;
65477;SDS011;53678;39.642;22.430;2023-09-18T13:28:06;7.10;;;4.20;;
65477;SDS011;53678;39.642;22.430;2023-09-18T13:30:35;8.88;;;4.20;;
65477;SDS011;53678;39.642;22.430;2023-09-18T13:35:33;9.60;;;4.50;;
65477;SDS011;53678;39.642;22.430;2023-09-18T13:38:00;10.82;;;4.28;;
65477;SDS011;53678;39.642;22.430;2023-09-18T13:40:29;9.77;;;4.10;;
65477;SDS011;53678;39.642;22.430;2023-09-18T13:42:55;10.95;;;4.15;;
65477;SDS011;53678;39.642;22.430;2023-09-18T13:45:20;10.85;;;4.25;;
65477;SDS011;53678;39.642;22.430;2023-09-18T13:47:46;6.82;;;3.70;;
65477;SDS011;53678;39.642;22.430;2023-09-18T13:50:14;11.98;;;4.38;;
65477;SDS011;53678;39.642;22.430;2023-09-18T13:52:40;8.68;;;4.57;;
65477;SDS011;53678;39.642;22.430;2023-09-18T13:55:06;8.57;;;4.53;;
65477;SDS011;53678;39.642;22.430;2023-09-18T13:57:34;6.97;;;4.72;;
65477;SDS011;53678;39.642;22.430;2023-09-18T14:00:00;8.45;;;4.53;;
65477;SDS011;53678;39.642;22.430;2023-09-18T14:02:38;6.38;;;3.92;;
65477;SDS011;53678;39.642;22.430;2023-09-18T14:05:05;10.23;;;4.35;;
65477;SDS011;53678;39.642;22.430;2023-09-18T14:07:31;10.50;;;5.10;;
65477;SDS011;53678;39.642;22.430;2023-09-18T14:09:57;8.65;;;4.60;;
65477;SDS011;53678;39.642;22.430;2023-09-18T14:12:23;7.20;;;4.30;;
65477;SDS011;53678;39.642;22.430;2023-09-18T14:14:49;6.55;;;4.40;;
65477;SDS011;53678;39.642;22.430;2023-09-18T14:17:15;11.80;;;4.85;;
65477;SDS011;53678;39.642;22.430;2023-09-18T14:19:43;6.10;;;4.45;;
65477;SDS011;53678;39.642;22.430;2023-09-18T14:22:09;8.60;;;4.40;;
65477;SDS011;53678;39.642;22.430;2023-09-18T14:24:35;12.23;;;5.22;;
65477;SDS011;53678;39.642;22.430;2023-09-18T14:27:01;11.95;;;5.05;;
65477;SDS011;53678;39.642;22.430;2023-09-18T14:29:28;7.22;;;4.47;;
65477;SDS011;53678;39.642;22.430;2023-09-18T14:31:55;11.05;;;4.72;;
65477;SDS011;53678;39.642;22.430;2023-09-18T14:34:22;12.30;;;4.65;;
65477;SDS011;53678;39.642;22.430;2023-09-18T14:36:48;10.45;;;5.05;;
65477;SDS011;53678;39.642;22.430;2023-09-18T14:39:13;8.50;;;5.20;;
65477;SDS011;53678;39.642;22.430;2023-09-18T14:41:39;9.38;;;4.82;;
65477;SDS011;53678;39.642;22.430;2023-09-18T14:44:07;8.07;;;4.68;;
65477;SDS011;53678;39.642;22.430;2023-09-18T14:46:34;11.65;;;5.13;;